createdAt,value
2024-04-25T00:01:13.187Z,4.50
2024-04-25T00:03:40.458Z,4.50
2024-04-25T00:06:07.595Z,4.50
2024-04-25T00:08:34.718Z,4.60
2024-04-25T00:11:01.898Z,4.60
2024-04-25T00:13:28.895Z,4.70
2024-04-25T00:15:59.935Z,4.90
2024-04-25T00:18:26.886Z,5.00
2024-04-25T00:20:54.120Z,5.10
2024-04-25T00:23:21.106Z,5.10
2024-04-25T00:25:48.305Z,5.30
2024-04-25T00:28:15.631Z,5.40
2024-04-25T00:30:42.765Z,5.40
2024-04-25T00:33:10.010Z,5.40
2024-04-25T00:35:37.142Z,5.50
2024-04-25T00:38:04.428Z,5.60
2024-04-25T00:40:33.045Z,5.60
2024-04-25T00:43:01.700Z,5.60
2024-04-25T00:45:28.789Z,5.70
2024-04-25T00:47:56.300Z,5.60
2024-04-25T00:50:24.884Z,5.60
2024-04-25T00:52:52.092Z,5.60
2024-04-25T00:55:19.220Z,5.60
2024-04-25T00:57:47.448Z,5.60
2024-04-25T01:00:16.279Z,5.60
2024-04-25T01:02:44.798Z,5.60
2024-04-25T01:05:13.321Z,5.60
2024-04-25T01:07:40.279Z,5.50
2024-04-25T01:10:07.601Z,5.40
2024-04-25T01:12:36.105Z,5.40
2024-04-25T01:15:03.310Z,5.30
2024-04-25T01:17:32.078Z,5.10
2024-04-25T01:19:59.890Z,5.10
2024-04-25T01:22:36.734Z,5.10
2024-04-25T01:25:07.540Z,5.00
2024-04-25T01:27:35.995Z,4.90
2024-04-25T01:30:04.108Z,4.90
2024-04-25T01:32:32.754Z,4.80
2024-04-25T01:35:00.783Z,4.80
2024-04-25T01:37:27.926Z,4.80
2024-04-25T01:39:54.926Z,4.70
2024-04-25T01:42:22.096Z,4.60
2024-04-25T01:44:49.148Z,4.60
2024-04-25T01:47:16.237Z,4.60
2024-04-25T01:49:43.423Z,4.50
2024-04-25T01:52:10.349Z,4.50
2024-04-25T01:54:37.418Z,4.50
2024-04-25T01:57:04.409Z,4.40
2024-04-25T01:59:31.414Z,4.40
2024-04-25T02:01:58.352Z,4.40
2024-04-25T02:04:25.559Z,4.30
2024-04-25T02:06:52.770Z,4.30
2024-04-25T02:09:19.692Z,4.30
2024-04-25T02:11:46.661Z,4.20
2024-04-25T02:14:13.727Z,4.30
2024-04-25T02:16:40.768Z,4.30
2024-04-25T02:19:07.747Z,4.40
2024-04-25T02:21:53.053Z,4.40
2024-04-25T02:24:38.615Z,4.50
2024-04-25T02:27:05.552Z,4.80
2024-04-25T02:29:32.512Z,4.90
2024-04-25T02:31:59.477Z,4.90
2024-04-25T02:34:26.462Z,5.00
2024-04-25T02:36:53.439Z,5.00
2024-04-25T02:39:20.377Z,5.00
2024-04-25T02:41:47.295Z,5.10
2024-04-25T02:44:14.302Z,5.00
2024-04-25T02:46:41.333Z,5.00
2024-04-25T02:49:09.152Z,4.90
2024-04-25T02:51:36.129Z,5.00
2024-04-25T02:54:03.443Z,5.10
2024-04-25T02:56:30.589Z,5.10
2024-04-25T02:58:57.722Z,5.10
2024-04-25T03:01:24.642Z,5.10
2024-04-25T03:03:51.779Z,5.10
2024-04-25T03:06:18.735Z,5.00
2024-04-25T03:08:45.775Z,5.00
2024-04-25T03:11:12.803Z,4.90
2024-04-25T03:13:41.581Z,4.90
2024-04-25T03:16:09.573Z,4.80
2024-04-25T03:18:36.749Z,4.80
2024-04-25T03:21:09.066Z,4.70
2024-04-25T03:23:38.503Z,4.70
2024-04-25T03:26:09.111Z,4.70
2024-04-25T03:28:36.767Z,4.70
2024-04-25T03:31:04.222Z,4.60
2024-04-25T03:33:31.470Z,4.60
2024-04-25T03:35:58.502Z,4.50
2024-04-25T03:38:25.514Z,4.50
2024-04-25T03:40:52.454Z,4.40
2024-04-25T03:43:19.378Z,4.30
2024-04-25T03:45:46.312Z,4.30
2024-04-25T03:48:13.760Z,4.30
2024-04-25T03:50:41.065Z,4.30
2024-04-25T03:53:10.447Z,4.30
2024-04-25T03:55:38.872Z,4.30
2024-04-25T03:58:05.860Z,4.30
2024-04-25T04:00:32.800Z,4.30
2024-04-25T04:02:59.848Z,4.40
2024-04-25T04:05:27.026Z,4.50
2024-04-25T04:07:54.488Z,4.50
2024-04-25T04:10:21.509Z,4.50
2024-04-25T04:12:49.381Z,4.60
2024-04-25T04:15:20.062Z,4.60
2024-04-25T04:17:48.115Z,4.60
2024-04-25T04:20:15.330Z,4.60
2024-04-25T04:22:42.381Z,4.70
2024-04-25T04:25:10.944Z,4.80
2024-04-25T04:27:38.376Z,4.90
2024-04-25T04:30:06.415Z,5.00
2024-04-25T04:32:33.497Z,4.90
2024-04-25T04:35:00.658Z,5.00
2024-04-25T04:37:27.599Z,5.00
2024-04-25T04:39:54.592Z,5.00
2024-04-25T04:42:21.645Z,5.00
2024-04-25T04:44:50.362Z,5.00
2024-04-25T04:47:17.934Z,5.00
2024-04-25T04:49:44.910Z,5.00
2024-04-25T04:52:11.890Z,5.10
2024-04-25T04:54:39.014Z,5.10
2024-04-25T04:57:05.973Z,5.20
2024-04-25T04:59:33.017Z,5.20
2024-04-25T05:02:00.117Z,5.30
2024-04-25T05:04:27.121Z,5.20
2024-04-25T05:06:54.081Z,5.30
2024-04-25T05:09:20.998Z,5.40
2024-04-25T05:11:48.156Z,5.50
2024-04-25T05:14:15.284Z,5.50
2024-04-25T05:16:42.730Z,5.60
2024-04-25T05:19:10.359Z,5.60
2024-04-25T05:21:37.412Z,5.70
2024-04-25T05:24:05.176Z,5.70
2024-04-25T05:26:32.241Z,5.80
2024-04-25T05:28:59.214Z,5.90
2024-04-25T05:31:26.192Z,5.90
2024-04-25T05:33:53.363Z,6.00
2024-04-25T05:36:20.480Z,6.10
2024-04-25T05:38:47.813Z,6.10
2024-04-25T05:41:14.866Z,6.20
2024-04-25T05:43:41.836Z,6.30
2024-04-25T05:46:10.102Z,6.50
2024-04-25T05:48:39.924Z,6.60
2024-04-25T05:51:06.922Z,6.60
2024-04-25T05:53:34.095Z,6.60
2024-04-25T05:56:01.034Z,6.60
2024-04-25T05:58:27.970Z,6.70
2024-04-25T06:00:54.987Z,6.80
2024-04-25T06:03:22.024Z,6.80
2024-04-25T06:05:49.244Z,6.90
2024-04-25T06:08:16.340Z,6.90
2024-04-25T06:10:44.414Z,6.90
2024-04-25T06:13:11.560Z,7.10
2024-04-25T06:15:39.574Z,7.20
2024-04-25T06:18:08.719Z,7.20
2024-04-25T06:20:35.798Z,7.30
2024-04-25T06:23:04.863Z,7.40
2024-04-25T06:25:32.067Z,7.50
2024-04-25T06:27:59.023Z,7.50
2024-04-25T06:30:25.985Z,7.50
2024-04-25T06:32:53.312Z,7.50
2024-04-25T06:35:20.353Z,7.50
2024-04-25T06:37:48.200Z,7.60
2024-04-25T06:40:15.464Z,7.70
2024-04-25T06:42:42.390Z,7.70
2024-04-25T06:45:09.355Z,7.80
2024-04-25T06:47:36.506Z,7.90
2024-04-25T06:50:03.611Z,8.10
2024-04-25T06:52:30.640Z,8.30
2024-04-25T06:54:57.835Z,8.30
2024-04-25T06:57:26.610Z,8.40
2024-04-25T06:59:54.267Z,8.40
2024-04-25T07:02:21.629Z,8.50
2024-04-25T07:04:48.830Z,8.40
2024-04-25T07:07:15.809Z,8.40
2024-04-25T07:09:42.748Z,8.40
2024-04-25T07:12:10.002Z,8.50
2024-04-25T07:14:37.054Z,8.50
2024-04-25T07:17:04.127Z,8.40
2024-04-25T07:19:31.299Z,8.30
2024-04-25T07:21:59.214Z,8.50
2024-04-25T07:24:26.247Z,8.50
2024-04-25T07:26:53.188Z,8.60
2024-04-25T07:29:20.168Z,8.80
2024-04-25T07:31:47.116Z,8.80
2024-04-25T07:34:14.232Z,8.80
2024-04-25T07:36:41.143Z,8.90
2024-04-25T07:39:08.208Z,8.90
2024-04-25T07:41:35.246Z,9.00
2024-04-25T07:44:02.265Z,8.90
2024-04-25T07:46:29.561Z,9.30
2024-04-25T07:48:57.380Z,9.10
2024-04-25T07:51:24.387Z,9.30
2024-04-25T07:53:51.361Z,9.40
2024-04-25T07:56:18.420Z,9.40
2024-04-25T07:58:45.415Z,9.10
2024-04-25T08:01:19.126Z,9.00
2024-04-25T08:03:46.169Z,9.00
2024-04-25T08:06:13.523Z,9.00
2024-04-25T08:08:41.071Z,9.10
2024-04-25T08:11:08.197Z,9.20
2024-04-25T08:13:35.241Z,9.30
2024-04-25T08:16:02.449Z,9.30
2024-04-25T08:18:29.891Z,9.10
2024-04-25T08:20:57.152Z,9.00
2024-04-25T08:23:24.155Z,9.20
2024-04-25T08:25:51.111Z,9.40
2024-04-25T08:28:18.521Z,8.90
2024-04-25T08:30:45.971Z,8.90
2024-04-25T08:33:13.463Z,8.90
2024-04-25T08:35:40.681Z,9.00
2024-04-25T08:38:08.403Z,9.00
2024-04-25T08:40:35.668Z,9.20
2024-04-25T08:43:05.738Z,9.20
2024-04-25T08:45:36.175Z,9.20
2024-04-25T08:48:07.588Z,9.10
2024-04-25T08:50:35.880Z,9.20
2024-04-25T08:53:05.969Z,9.20
2024-04-25T08:55:36.423Z,9.60
2024-04-25T08:58:06.305Z,9.60
2024-04-25T09:00:33.318Z,9.60
2024-04-25T09:03:05.208Z,9.60
2024-04-25T09:05:34.677Z,9.50
2024-04-25T09:08:01.712Z,9.60
2024-04-25T09:10:42.528Z,9.60
2024-04-25T09:13:10.421Z,9.60
2024-04-25T09:15:37.896Z,9.50
2024-04-25T09:18:05.463Z,9.60
2024-04-25T09:20:32.821Z,9.50
2024-04-25T09:23:03.454Z,9.20
2024-04-25T09:25:33.442Z,9.10
2024-04-25T09:28:02.489Z,8.50
2024-04-25T09:30:32.196Z,7.80
2024-04-25T09:32:59.324Z,7.70
2024-04-25T09:35:26.363Z,7.80
2024-04-25T09:37:53.378Z,7.80
2024-04-25T09:40:20.294Z,8.00
2024-04-25T09:42:48.020Z,8.00
2024-04-25T09:45:17.806Z,8.00
2024-04-25T09:47:57.032Z,8.00
2024-04-25T09:50:30.835Z,8.10
2024-04-25T09:53:09.208Z,8.10
2024-04-25T09:55:41.226Z,8.10
2024-04-25T09:58:48.684Z,8.10
2024-04-25T10:01:16.987Z,8.10
2024-04-25T10:03:45.803Z,8.10
2024-04-25T10:06:13.086Z,8.10
2024-04-25T10:08:42.145Z,8.10
2024-04-25T10:13:47.471Z,8.20
2024-04-25T10:16:14.473Z,8.10
2024-04-25T10:18:51.966Z,8.20
2024-04-25T10:21:20.233Z,8.20
2024-04-25T10:23:48.532Z,8.20
2024-04-25T10:26:22.782Z,8.10
2024-04-25T10:29:05.481Z,8.00
2024-04-25T10:31:40.963Z,8.20
2024-04-25T10:34:09.740Z,8.30
2024-04-25T10:36:38.226Z,8.20
2024-04-25T10:39:08.960Z,8.20
2024-04-25T10:41:40.019Z,8.00
2024-04-25T10:44:09.324Z,7.80
2024-04-25T10:46:38.406Z,7.90
2024-04-25T10:49:07.333Z,7.80
2024-04-25T10:51:37.684Z,7.90
2024-04-25T10:54:04.836Z,8.00
2024-04-25T10:56:32.001Z,8.10
2024-04-25T10:58:59.540Z,8.20
2024-04-25T11:01:29.375Z,8.30
2024-04-25T11:04:06.071Z,8.40
2024-04-25T11:06:38.174Z,8.50
2024-04-25T11:09:13.191Z,8.70
2024-04-25T11:11:40.838Z,8.60
2024-04-25T11:14:08.324Z,8.80
2024-04-25T11:16:38.263Z,8.90
2024-04-25T11:19:13.832Z,8.80
2024-04-25T11:21:49.791Z,9.00
2024-04-25T11:24:19.043Z,9.10
2024-04-25T11:26:48.163Z,9.30
2024-04-25T11:29:16.812Z,9.40
2024-04-25T11:31:45.724Z,9.60
2024-04-25T11:34:22.011Z,9.90
2024-04-25T11:37:04.672Z,10.00
2024-04-25T11:39:36.783Z,10.00
2024-04-25T11:42:09.842Z,10.10
2024-04-25T11:44:37.040Z,10.20
2024-04-25T11:47:04.091Z,10.30
2024-04-25T11:49:31.600Z,10.40
2024-04-25T11:51:58.538Z,10.50
2024-04-25T11:54:25.485Z,10.70
2024-04-25T11:56:52.629Z,10.70
2024-04-25T11:59:19.741Z,10.80
2024-04-25T12:01:47.349Z,10.70
2024-04-25T12:04:15.276Z,11.00
2024-04-25T12:06:42.315Z,11.10
2024-04-25T12:09:09.266Z,11.30
2024-04-25T12:11:39.660Z,11.10
2024-04-25T12:14:07.792Z,11.10
2024-04-25T12:16:35.407Z,11.20
2024-04-25T12:19:03.210Z,11.20
2024-04-25T12:21:30.211Z,10.90
2024-04-25T12:23:57.239Z,10.80
2024-04-25T12:26:24.272Z,11.00
2024-04-25T12:28:51.339Z,11.40
2024-04-25T12:31:19.844Z,11.60
2024-04-25T12:33:46.830Z,11.60
2024-04-25T12:36:13.828Z,11.60
2024-04-25T12:38:40.761Z,11.70
2024-04-25T12:41:07.798Z,11.60
2024-04-25T12:43:35.476Z,11.40
2024-04-25T12:46:04.021Z,11.60
2024-04-25T12:48:31.649Z,11.70
2024-04-25T12:50:59.180Z,11.60
2024-04-25T12:53:26.263Z,11.60
2024-04-25T12:55:53.246Z,11.70
2024-04-25T12:58:20.203Z,11.90
2024-04-25T13:00:47.204Z,12.00
2024-04-25T13:03:14.364Z,11.60
2024-04-25T13:05:41.501Z,11.70
2024-04-25T13:08:10.139Z,11.80
2024-04-25T13:10:37.145Z,11.80
2024-04-25T13:13:04.926Z,11.80
2024-04-25T13:15:32.071Z,11.70
2024-04-25T13:17:59.123Z,11.40
2024-04-25T13:20:26.223Z,11.50
2024-04-25T13:22:53.171Z,11.50
2024-04-25T13:25:20.138Z,11.50
2024-04-25T13:27:47.090Z,11.40
2024-04-25T13:30:14.248Z,11.40
2024-04-25T13:32:43.232Z,11.40
2024-04-25T13:35:10.758Z,11.10
2024-04-25T13:37:37.718Z,11.00
2024-04-25T13:40:05.208Z,11.00
2024-04-25T13:42:33.019Z,11.00
2024-04-25T13:45:02.086Z,10.90
2024-04-25T13:47:29.248Z,10.80
2024-04-25T13:49:56.355Z,10.80
2024-04-25T13:52:24.955Z,10.70
2024-04-25T13:54:52.008Z,10.80
2024-04-25T13:57:19.107Z,10.70
2024-04-25T13:59:46.536Z,10.70
2024-04-25T14:02:13.727Z,10.70
2024-04-25T14:04:40.775Z,10.70
2024-04-25T14:07:10.080Z,10.70
2024-04-25T14:09:42.356Z,10.70
2024-04-25T14:12:09.380Z,10.60
2024-04-25T14:14:36.876Z,10.60
2024-04-25T14:17:03.878Z,10.50
2024-04-25T14:19:30.845Z,10.70
2024-04-25T14:21:57.825Z,10.70
2024-04-25T14:24:24.884Z,10.80
2024-04-25T14:27:10.450Z,10.80
2024-04-25T14:29:38.981Z,10.80
2024-04-25T14:32:06.455Z,10.70
2024-04-25T14:34:34.501Z,10.70
2024-04-25T14:37:01.462Z,10.60
2024-04-25T14:39:28.595Z,10.60
2024-04-25T14:41:56.558Z,10.70
2024-04-25T14:44:23.622Z,10.60
2024-04-25T14:46:50.806Z,10.60
2024-04-25T14:49:17.817Z,10.50
2024-04-25T14:51:44.774Z,10.50
2024-04-25T14:54:11.683Z,10.40
2024-04-25T14:56:38.628Z,10.40
2024-04-25T14:59:08.285Z,10.40
2024-04-25T15:01:35.683Z,10.30
2024-04-25T15:04:05.663Z,10.30
2024-04-25T15:06:39.570Z,10.40
2024-04-25T15:09:07.102Z,10.40
2024-04-25T15:11:34.200Z,10.50
2024-04-25T15:14:01.218Z,10.50
2024-04-25T15:16:28.227Z,10.40
2024-04-25T15:18:55.777Z,10.50
2024-04-25T15:21:22.791Z,10.40
2024-04-25T15:23:49.809Z,10.30
2024-04-25T15:26:17.094Z,10.10
2024-04-25T15:28:44.060Z,10.10
2024-04-25T15:31:11.068Z,10.10
2024-04-25T15:33:38.153Z,10.00
2024-04-25T15:36:05.449Z,10.00
2024-04-25T15:38:32.434Z,9.90
2024-04-25T15:40:59.427Z,9.80
2024-04-25T15:43:26.371Z,9.80
2024-04-25T15:45:53.477Z,9.80
2024-04-25T15:48:20.671Z,9.90
2024-04-25T15:50:47.790Z,9.80
2024-04-25T15:53:14.825Z,9.70
2024-04-25T15:55:41.912Z,9.80
2024-04-25T15:58:08.952Z,9.70
2024-04-25T16:00:35.931Z,9.70
2024-04-25T16:03:04.359Z,9.70
2024-04-25T16:05:31.498Z,9.60
2024-04-25T16:07:59.519Z,9.50
2024-04-25T16:10:26.478Z,9.40
2024-04-25T16:12:53.410Z,9.40
2024-04-25T16:15:20.562Z,9.30
2024-04-25T16:17:47.561Z,9.10
2024-04-25T16:20:14.628Z,8.90
2024-04-25T16:22:41.584Z,8.90
2024-04-25T16:25:08.550Z,8.70
2024-04-25T16:27:35.456Z,8.50
2024-04-25T16:30:03.088Z,8.50
2024-04-25T16:32:30.203Z,8.50
2024-04-25T16:34:58.089Z,8.50
2024-04-25T16:37:27.353Z,8.50
2024-04-25T16:39:55.893Z,8.50
2024-04-25T16:42:22.893Z,8.50
2024-04-25T16:44:53.023Z,8.40
2024-04-25T16:47:20.331Z,8.50
2024-04-25T16:49:47.407Z,8.40
2024-04-25T16:52:14.370Z,8.40
2024-04-25T16:54:41.617Z,8.40
2024-04-25T16:57:09.127Z,8.40
2024-04-25T16:59:37.144Z,8.40
2024-04-25T17:02:06.803Z,8.40
2024-04-25T17:04:35.990Z,8.50
2024-04-25T17:07:04.106Z,8.40
2024-04-25T17:09:31.030Z,8.40
2024-04-25T17:11:58.093Z,8.40
2024-04-25T17:14:26.349Z,8.40
2024-04-25T17:16:53.838Z,8.40
2024-04-25T17:19:20.798Z,8.40
2024-04-25T17:21:48.182Z,8.40
2024-04-25T17:24:16.953Z,8.40
2024-04-25T17:26:44.136Z,8.40
2024-04-25T17:29:13.266Z,8.40
2024-04-25T17:31:42.263Z,8.40
2024-04-25T17:34:09.319Z,8.30
2024-04-25T17:36:36.307Z,8.20
2024-04-25T17:39:05.943Z,8.20
2024-04-25T17:41:33.210Z,8.20
2024-04-25T17:44:00.214Z,8.20
2024-04-25T17:46:27.243Z,8.20
2024-04-25T17:48:54.401Z,8.20
2024-04-25T17:51:22.176Z,8.10
2024-04-25T17:53:50.272Z,8.10
2024-04-25T17:56:18.114Z,8.10
2024-04-25T17:58:46.083Z,8.00
2024-04-25T18:01:13.320Z,8.00
2024-04-25T18:03:40.291Z,8.10
2024-04-25T18:06:10.192Z,8.10
2024-04-25T18:08:37.593Z,8.00
2024-04-25T18:11:05.220Z,8.10
2024-04-25T18:13:33.194Z,8.20
2024-04-25T18:16:00.255Z,8.30
2024-04-25T18:18:28.331Z,8.30
2024-04-25T18:20:55.408Z,8.30
2024-04-25T18:23:22.382Z,8.30
2024-04-25T18:25:49.310Z,8.20
2024-04-25T18:28:21.843Z,8.30
2024-04-25T18:30:48.944Z,8.20
2024-04-25T18:33:16.203Z,8.10
2024-04-25T18:35:43.241Z,8.10
2024-04-25T18:38:10.207Z,8.20
2024-04-25T18:40:37.182Z,8.20
2024-04-25T18:43:04.663Z,8.10
2024-04-25T18:45:31.626Z,8.10
2024-04-25T18:47:58.824Z,8.10
2024-04-25T18:50:26.007Z,7.70
2024-04-25T18:52:53.092Z,7.60
2024-04-25T18:55:20.331Z,7.50
2024-04-25T18:57:47.349Z,7.40
2024-04-25T19:00:17.287Z,7.50
2024-04-25T19:02:44.592Z,7.30
2024-04-25T19:05:11.714Z,7.40
2024-04-25T19:07:38.750Z,7.40
2024-04-25T19:10:05.889Z,7.40
2024-04-25T19:12:37.604Z,7.50
2024-04-25T19:15:06.488Z,7.40
2024-04-25T19:17:33.516Z,7.40
2024-04-25T19:20:00.527Z,7.40
2024-04-25T19:22:30.217Z,7.50
2024-04-25T19:24:57.997Z,7.60
2024-04-25T19:27:26.200Z,7.60
2024-04-25T19:29:55.229Z,7.60
2024-04-25T19:32:22.376Z,7.60
2024-04-25T19:34:53.281Z,7.60
2024-04-25T19:37:20.197Z,7.70
2024-04-25T19:39:50.340Z,7.70
2024-04-25T19:42:19.873Z,7.70
2024-04-25T19:44:47.244Z,7.70
2024-04-25T19:47:14.655Z,7.60
2024-04-25T19:49:41.730Z,7.60
2024-04-25T19:52:09.186Z,7.60
2024-04-25T19:54:36.193Z,7.60
2024-04-25T19:57:04.313Z,7.60
2024-04-25T19:59:34.840Z,7.60
2024-04-25T20:02:01.916Z,7.60
2024-04-25T20:04:29.045Z,7.60
2024-04-25T20:06:56.017Z,7.60
2024-04-25T20:09:23.115Z,7.60
2024-04-25T20:11:50.871Z,7.60
2024-04-25T20:14:17.842Z,7.70
2024-04-25T20:16:46.095Z,7.70
2024-04-25T20:19:31.858Z,7.70
2024-04-25T20:21:58.819Z,7.70
2024-04-25T20:24:25.814Z,7.70
2024-04-25T20:26:53.069Z,7.60
2024-04-25T20:29:20.234Z,7.60
2024-04-25T20:31:47.296Z,7.70
2024-04-25T20:34:14.292Z,7.70
2024-04-25T20:36:44.364Z,7.70
2024-04-25T20:39:11.587Z,7.70
2024-04-25T20:41:42.966Z,7.70
2024-04-25T20:44:10.134Z,7.70
2024-04-25T20:46:37.416Z,7.70
2024-04-25T20:49:04.458Z,7.70
2024-04-25T20:51:32.377Z,7.70
2024-04-25T20:54:00.605Z,7.60
2024-04-25T20:56:32.072Z,7.60
2024-04-25T20:58:59.130Z,7.60
2024-04-25T21:01:26.031Z,7.70
2024-04-25T21:03:53.011Z,7.60
2024-04-25T21:06:20.103Z,7.60
2024-04-25T21:08:47.080Z,7.60
2024-04-25T21:11:14.034Z,7.60
2024-04-25T21:13:41.065Z,7.60
2024-04-25T21:16:10.443Z,7.60
2024-04-25T21:18:37.437Z,7.60
2024-04-25T21:21:05.206Z,7.60
2024-04-25T21:23:33.596Z,7.60
2024-04-25T21:26:01.855Z,7.70
2024-04-25T21:28:29.438Z,7.70
2024-04-25T21:30:56.492Z,7.70
2024-04-25T21:33:24.030Z,7.70
2024-04-25T21:35:51.517Z,7.80
2024-04-25T21:38:19.164Z,7.80
2024-04-25T21:40:46.403Z,7.80
2024-04-25T21:43:13.747Z,7.80
2024-04-25T21:45:40.891Z,7.90
2024-04-25T21:48:08.457Z,7.90
2024-04-25T21:50:36.261Z,7.90
2024-04-25T21:53:03.358Z,7.90
2024-04-25T21:55:30.296Z,7.80
2024-04-25T21:57:59.241Z,7.80
2024-04-25T22:00:28.101Z,7.90
2024-04-25T22:02:57.511Z,7.80
2024-04-25T22:05:24.854Z,7.80
2024-04-25T22:07:51.899Z,7.80
2024-04-25T22:10:18.835Z,7.80
2024-04-25T22:12:45.898Z,7.80
2024-04-25T22:15:12.832Z,7.80
2024-04-25T22:17:40.217Z,7.90
2024-04-25T22:20:07.835Z,7.90
2024-04-25T22:22:38.580Z,7.90
2024-04-25T22:25:05.740Z,7.90
2024-04-25T22:27:37.585Z,7.90
2024-04-25T22:30:06.388Z,7.90
2024-04-25T22:32:33.718Z,7.90
2024-04-25T22:35:00.800Z,7.90
2024-04-25T22:37:27.905Z,7.90
2024-04-25T22:39:55.279Z,7.90
2024-04-25T22:42:22.336Z,7.90
2024-04-25T22:44:55.386Z,7.90
2024-04-25T22:47:25.344Z,8.00
2024-04-25T22:49:52.462Z,7.90
2024-04-25T22:52:20.179Z,7.90
2024-04-25T22:54:47.121Z,7.90
2024-04-25T22:57:14.211Z,7.90
2024-04-25T22:59:41.225Z,7.90
2024-04-25T23:02:08.479Z,7.90
2024-04-25T23:04:35.668Z,7.90
2024-04-25T23:07:02.695Z,7.90
2024-04-25T23:09:29.762Z,7.90
2024-04-25T23:11:56.874Z,7.90
2024-04-25T23:14:23.931Z,7.90
2024-04-25T23:16:50.881Z,7.90
2024-04-25T23:19:17.870Z,7.90
2024-04-25T23:21:44.838Z,8.00
2024-04-25T23:24:12.220Z,8.00
2024-04-25T23:26:40.170Z,8.00
2024-04-25T23:29:07.395Z,7.90
2024-04-25T23:31:34.392Z,7.90
2024-04-25T23:34:01.576Z,7.90
2024-04-25T23:36:28.625Z,7.90
2024-04-25T23:38:55.752Z,7.90
2024-04-25T23:41:23.039Z,7.90
2024-04-25T23:43:50.048Z,7.90
2024-04-25T23:46:17.101Z,8.00
2024-04-25T23:48:44.133Z,8.00
2024-04-25T23:51:11.157Z,8.00
2024-04-25T23:53:38.164Z,8.00
2024-04-25T23:56:06.071Z,8.00
2024-04-25T23:58:33.056Z,7.90
